sensor_id;sensor_type;location;lat;lon;timestamp;P1;durP1;ratioP1;P2;durP2;ratioP2
41436;SDS011;27178;49.460;10.850;2024-02-14T00:01:12;3.70;;;2.90;;
41436;SDS011;27178;49.460;10.850;2024-02-14T00:03:41;3.27;;;2.97;;
41436;SDS011;27178;49.460;10.850;2024-02-14T00:06:10;4.43;;;3.00;;
41436;SDS011;27178;49.460;10.850;2024-02-14T00:08:40;4.17;;;3.23;;
41436;SDS011;27178;49.460;10.850;2024-02-14T00:11:08;4.53;;;3.17;;
41436;SDS011;27178;49.460;10.850;2024-02-14T00:13:36;4.37;;;2.90;;
41436;SDS011;27178;49.460;10.850;2024-02-14T00:16:05;3.90;;;3.23;;
41436;SDS011;27178;49.460;10.850;2024-02-14T00:18:34;3.83;;;3.00;;
41436;SDS011;27178;49.460;10.850;2024-02-14T00:21:03;3.30;;;3.00;;
41436;SDS011;27178;49.460;10.850;2024-02-14T00:23:33;3.63;;;3.10;;
41436;SDS011;27178;49.460;10.850;2024-02-14T00:26:02;5.28;;;3.38;;
41436;SDS011;27178;49.460;10.850;2024-02-14T00:28:30;3.50;;;2.60;;
41436;SDS011;27178;49.460;10.850;2024-02-14T00:30:59;4.03;;;3.27;;
41436;SDS011;27178;49.460;10.850;2024-02-14T00:33:27;3.10;;;2.80;;
41436;SDS011;27178;49.460;10.850;2024-02-14T00:35:55;5.20;;;3.57;;
41436;SDS011;27178;49.460;10.850;2024-02-14T00:38:24;3.90;;;2.97;;
41436;SDS011;27178;49.460;10.850;2024-02-14T00:40:54;3.20;;;2.87;;
41436;SDS011;27178;49.460;10.850;2024-02-14T00:43:22;3.00;;;2.70;;
41436;SDS011;27178;49.460;10.850;2024-02-14T00:45:50;3.47;;;2.50;;
41436;SDS011;27178;49.460;10.850;2024-02-14T00:48:19;3.35;;;3.05;;
41436;SDS011;27178;49.460;10.850;2024-02-14T00:50:47;3.87;;;3.07;;
41436;SDS011;27178;49.460;10.850;2024-02-14T00:53:15;5.73;;;3.20;;
41436;SDS011;27178;49.460;10.850;2024-02-14T00:55:43;4.77;;;2.97;;
41436;SDS011;27178;49.460;10.850;2024-02-14T00:58:13;5.43;;;3.10;;
41436;SDS011;27178;49.460;10.850;2024-02-14T01:00:42;2.83;;;2.55;;
41436;SDS011;27178;49.460;10.850;2024-02-14T01:03:10;3.50;;;3.08;;
41436;SDS011;27178;49.460;10.850;2024-02-14T01:05:39;3.88;;;3.30;;
41436;SDS011;27178;49.460;10.850;2024-02-14T01:08:08;3.40;;;3.10;;
41436;SDS011;27178;49.460;10.850;2024-02-14T01:10:36;6.20;;;3.03;;
41436;SDS011;27178;49.460;10.850;2024-02-14T01:13:05;5.67;;;3.60;;
41436;SDS011;27178;49.460;10.850;2024-02-14T01:15:34;3.20;;;2.90;;
41436;SDS011;27178;49.460;10.850;2024-02-14T01:18:03;3.40;;;2.97;;
41436;SDS011;27178;49.460;10.850;2024-02-14T01:20:32;4.23;;;3.40;;
41436;SDS011;27178;49.460;10.850;2024-02-14T01:23:00;5.37;;;3.30;;
41436;SDS011;27178;49.460;10.850;2024-02-14T01:25:28;5.67;;;3.40;;
41436;SDS011;27178;49.460;10.850;2024-02-14T01:27:57;3.40;;;2.80;;
41436;SDS011;27178;49.460;10.850;2024-02-14T01:30:26;4.00;;;2.97;;
41436;SDS011;27178;49.460;10.850;2024-02-14T01:32:55;4.07;;;3.13;;
41436;SDS011;27178;49.460;10.850;2024-02-14T01:35:24;5.00;;;3.67;;
41436;SDS011;27178;49.460;10.850;2024-02-14T01:37:53;3.50;;;2.97;;
41436;SDS011;27178;49.460;10.850;2024-02-14T01:40:21;3.97;;;2.87;;
41436;SDS011;27178;49.460;10.850;2024-02-14T01:42:49;3.33;;;2.90;;
41436;SDS011;27178;49.460;10.850;2024-02-14T01:45:18;3.20;;;2.90;;
41436;SDS011;27178;49.460;10.850;2024-02-14T01:47:47;3.80;;;2.93;;
41436;SDS011;27178;49.460;10.850;2024-02-14T01:50:18;3.87;;;2.90;;
41436;SDS011;27178;49.460;10.850;2024-02-14T01:52:55;3.87;;;3.00;;
41436;SDS011;27178;49.460;10.850;2024-02-14T01:55:25;3.93;;;3.13;;
41436;SDS011;27178;49.460;10.850;2024-02-14T01:57:56;4.17;;;2.83;;
41436;SDS011;27178;49.460;10.850;2024-02-14T02:00:25;4.90;;;2.93;;
41436;SDS011;27178;49.460;10.850;2024-02-14T02:02:53;3.30;;;3.00;;
41436;SDS011;27178;49.460;10.850;2024-02-14T02:05:23;4.13;;;2.80;;
41436;SDS011;27178;49.460;10.850;2024-02-14T02:07:52;3.30;;;2.90;;
41436;SDS011;27178;49.460;10.850;2024-02-14T02:10:20;3.87;;;3.00;;
41436;SDS011;27178;49.460;10.850;2024-02-14T02:12:57;4.00;;;2.73;;
41436;SDS011;27178;49.460;10.850;2024-02-14T02:15:25;4.47;;;2.57;;
41436;SDS011;27178;49.460;10.850;2024-02-14T02:17:55;4.73;;;3.17;;
41436;SDS011;27178;49.460;10.850;2024-02-14T02:20:25;5.40;;;3.10;;
41436;SDS011;27178;49.460;10.850;2024-02-14T02:22:55;2.97;;;2.67;;
41436;SDS011;27178;49.460;10.850;2024-02-14T02:25:24;3.50;;;2.50;;
41436;SDS011;27178;49.460;10.850;2024-02-14T02:27:53;3.87;;;2.73;;
41436;SDS011;27178;49.460;10.850;2024-02-14T02:30:23;3.33;;;2.87;;
41436;SDS011;27178;49.460;10.850;2024-02-14T02:32:52;3.53;;;2.67;;
41436;SDS011;27178;49.460;10.850;2024-02-14T02:35:20;3.63;;;2.57;;
41436;SDS011;27178;49.460;10.850;2024-02-14T02:37:51;3.03;;;2.43;;
41436;SDS011;27178;49.460;10.850;2024-02-14T02:40:22;2.63;;;2.40;;
41436;SDS011;27178;49.460;10.850;2024-02-14T02:42:50;3.33;;;2.17;;
41436;SDS011;27178;49.460;10.850;2024-02-14T02:45:19;3.70;;;2.87;;
41436;SDS011;27178;49.460;10.850;2024-02-14T02:47:47;2.73;;;2.53;;
41436;SDS011;27178;49.460;10.850;2024-02-14T02:50:18;3.90;;;2.60;;
41436;SDS011;27178;49.460;10.850;2024-02-14T02:52:48;3.93;;;2.80;;
41436;SDS011;27178;49.460;10.850;2024-02-14T02:55:16;2.47;;;2.20;;
41436;SDS011;27178;49.460;10.850;2024-02-14T02:57:46;3.30;;;2.67;;
41436;SDS011;27178;49.460;10.850;2024-02-14T03:00:15;4.03;;;2.67;;
41436;SDS011;27178;49.460;10.850;2024-02-14T03:02:47;4.00;;;2.40;;
41436;SDS011;27178;49.460;10.850;2024-02-14T03:05:16;2.73;;;2.20;;
41436;SDS011;27178;49.460;10.850;2024-02-14T03:07:45;2.73;;;2.27;;
41436;SDS011;27178;49.460;10.850;2024-02-14T03:10:16;2.83;;;2.63;;
41436;SDS011;27178;49.460;10.850;2024-02-14T03:12:47;2.60;;;2.30;;
41436;SDS011;27178;49.460;10.850;2024-02-14T03:15:15;2.47;;;2.27;;
41436;SDS011;27178;49.460;10.850;2024-02-14T03:17:45;3.10;;;2.80;;
41436;SDS011;27178;49.460;10.850;2024-02-14T03:20:13;4.07;;;2.40;;
41436;SDS011;27178;49.460;10.850;2024-02-14T03:22:44;3.60;;;2.63;;
41436;SDS011;27178;49.460;10.850;2024-02-14T03:25:16;3.50;;;2.60;;
41436;SDS011;27178;49.460;10.850;2024-02-14T03:27:47;4.70;;;2.77;;
41436;SDS011;27178;49.460;10.850;2024-02-14T03:30:19;3.03;;;2.73;;
41436;SDS011;27178;49.460;10.850;2024-02-14T03:32:49;2.73;;;2.53;;
41436;SDS011;27178;49.460;10.850;2024-02-14T03:35:19;2.27;;;1.90;;
41436;SDS011;27178;49.460;10.850;2024-02-14T03:37:48;4.00;;;2.53;;
41436;SDS011;27178;49.460;10.850;2024-02-14T03:40:19;3.60;;;2.17;;
41436;SDS011;27178;49.460;10.850;2024-02-14T03:42:50;3.17;;;2.80;;
41436;SDS011;27178;49.460;10.850;2024-02-14T03:45:18;3.20;;;2.40;;
41436;SDS011;27178;49.460;10.850;2024-02-14T03:47:47;3.40;;;2.30;;
41436;SDS011;27178;49.460;10.850;2024-02-14T03:50:16;3.40;;;2.63;;
41436;SDS011;27178;49.460;10.850;2024-02-14T03:52:44;2.60;;;2.40;;
41436;SDS011;27178;49.460;10.850;2024-02-14T03:55:13;2.70;;;2.20;;
41436;SDS011;27178;49.460;10.850;2024-02-14T03:57:43;2.60;;;2.40;;
41436;SDS011;27178;49.460;10.850;2024-02-14T04:00:13;2.97;;;2.57;;
41436;SDS011;27178;49.460;10.850;2024-02-14T04:02:43;2.33;;;2.13;;
41436;SDS011;27178;49.460;10.850;2024-02-14T04:05:11;2.73;;;2.50;;
41436;SDS011;27178;49.460;10.850;2024-02-14T04:07:39;2.87;;;2.60;;
41436;SDS011;27178;49.460;10.850;2024-02-14T04:10:11;2.37;;;2.17;;
41436;SDS011;27178;49.460;10.850;2024-02-14T04:12:40;4.07;;;2.37;;
41436;SDS011;27178;49.460;10.850;2024-02-14T04:15:09;2.77;;;2.53;;
41436;SDS011;27178;49.460;10.850;2024-02-14T04:17:38;3.13;;;2.33;;
41436;SDS011;27178;49.460;10.850;2024-02-14T04:20:07;2.93;;;2.50;;
41436;SDS011;27178;49.460;10.850;2024-02-14T04:22:36;3.37;;;2.60;;
41436;SDS011;27178;49.460;10.850;2024-02-14T04:25:07;2.67;;;2.47;;
41436;SDS011;27178;49.460;10.850;2024-02-14T04:27:35;3.47;;;2.77;;
41436;SDS011;27178;49.460;10.850;2024-02-14T04:30:05;3.63;;;2.83;;
41436;SDS011;27178;49.460;10.850;2024-02-14T04:32:34;3.20;;;2.70;;
41436;SDS011;27178;49.460;10.850;2024-02-14T04:35:04;3.73;;;2.70;;
41436;SDS011;27178;49.460;10.850;2024-02-14T04:37:32;3.50;;;2.60;;
41436;SDS011;27178;49.460;10.850;2024-02-14T04:40:01;2.90;;;2.70;;
41436;SDS011;27178;49.460;10.850;2024-02-14T04:42:30;4.93;;;3.03;;
41436;SDS011;27178;49.460;10.850;2024-02-14T04:44:59;3.03;;;2.50;;
41436;SDS011;27178;49.460;10.850;2024-02-14T04:47:28;3.83;;;3.00;;
41436;SDS011;27178;49.460;10.850;2024-02-14T04:49:57;2.97;;;2.70;;
41436;SDS011;27178;49.460;10.850;2024-02-14T04:52:28;5.67;;;3.23;;
41436;SDS011;27178;49.460;10.850;2024-02-14T04:54:56;5.83;;;3.50;;
41436;SDS011;27178;49.460;10.850;2024-02-14T04:57:24;4.43;;;3.43;;
41436;SDS011;27178;49.460;10.850;2024-02-14T04:59:53;6.30;;;3.57;;
41436;SDS011;27178;49.460;10.850;2024-02-14T05:02:21;3.83;;;3.43;;
41436;SDS011;27178;49.460;10.850;2024-02-14T05:04:49;4.43;;;3.23;;
41436;SDS011;27178;49.460;10.850;2024-02-14T05:07:18;3.77;;;3.43;;
41436;SDS011;27178;49.460;10.850;2024-02-14T05:09:47;3.70;;;3.40;;
41436;SDS011;27178;49.460;10.850;2024-02-14T05:12:18;3.57;;;3.27;;
41436;SDS011;27178;49.460;10.850;2024-02-14T05:14:46;4.67;;;3.20;;
41436;SDS011;27178;49.460;10.850;2024-02-14T05:17:15;6.23;;;3.70;;
41436;SDS011;27178;49.460;10.850;2024-02-14T05:19:44;4.00;;;3.57;;
41436;SDS011;27178;49.460;10.850;2024-02-14T05:22:12;4.80;;;4.03;;
41436;SDS011;27178;49.460;10.850;2024-02-14T05:24:41;4.33;;;3.93;;
41436;SDS011;27178;49.460;10.850;2024-02-14T05:27:10;6.30;;;4.23;;
41436;SDS011;27178;49.460;10.850;2024-02-14T05:29:38;6.17;;;5.00;;
41436;SDS011;27178;49.460;10.850;2024-02-14T05:32:07;5.30;;;4.57;;
41436;SDS011;27178;49.460;10.850;2024-02-14T05:34:37;7.03;;;6.07;;
41436;SDS011;27178;49.460;10.850;2024-02-14T05:37:05;7.63;;;6.90;;
41436;SDS011;27178;49.460;10.850;2024-02-14T05:39:34;5.83;;;5.23;;
41436;SDS011;27178;49.460;10.850;2024-02-14T05:42:03;5.20;;;4.70;;
41436;SDS011;27178;49.460;10.850;2024-02-14T05:44:34;6.17;;;4.90;;
41436;SDS011;27178;49.460;10.850;2024-02-14T05:47:02;4.57;;;4.17;;
41436;SDS011;27178;49.460;10.850;2024-02-14T05:49:31;5.60;;;4.20;;
41436;SDS011;27178;49.460;10.850;2024-02-14T05:52:00;4.80;;;4.27;;
41436;SDS011;27178;49.460;10.850;2024-02-14T05:54:28;4.83;;;4.33;;
41436;SDS011;27178;49.460;10.850;2024-02-14T05:56:56;6.33;;;4.33;;
41436;SDS011;27178;49.460;10.850;2024-02-14T05:59:25;4.30;;;3.83;;
41436;SDS011;27178;49.460;10.850;2024-02-14T06:01:55;5.67;;;4.00;;
41436;SDS011;27178;49.460;10.850;2024-02-14T06:04:23;4.97;;;3.43;;
41436;SDS011;27178;49.460;10.850;2024-02-14T06:06:51;4.15;;;3.38;;
41436;SDS011;27178;49.460;10.850;2024-02-14T06:09:19;3.50;;;3.20;;
41436;SDS011;27178;49.460;10.850;2024-02-14T06:11:48;4.43;;;3.60;;
41436;SDS011;27178;49.460;10.850;2024-02-14T06:14:16;3.97;;;3.57;;
41436;SDS011;27178;49.460;10.850;2024-02-14T06:16:45;4.03;;;3.43;;
41436;SDS011;27178;49.460;10.850;2024-02-14T06:19:14;3.60;;;3.30;;
41436;SDS011;27178;49.460;10.850;2024-02-14T06:21:43;3.80;;;3.13;;
41436;SDS011;27178;49.460;10.850;2024-02-14T06:24:11;4.70;;;3.50;;
41436;SDS011;27178;49.460;10.850;2024-02-14T06:26:40;4.57;;;3.30;;
41436;SDS011;27178;49.460;10.850;2024-02-14T06:29:08;5.50;;;3.57;;
41436;SDS011;27178;49.460;10.850;2024-02-14T06:31:37;3.97;;;3.03;;
41436;SDS011;27178;49.460;10.850;2024-02-14T06:34:05;3.93;;;3.53;;
41436;SDS011;27178;49.460;10.850;2024-02-14T06:36:36;3.83;;;3.43;;
41436;SDS011;27178;49.460;10.850;2024-02-14T06:39:06;3.40;;;3.10;;
41436;SDS011;27178;49.460;10.850;2024-02-14T06:41:35;3.67;;;3.33;;
41436;SDS011;27178;49.460;10.850;2024-02-14T06:44:03;4.20;;;3.80;;
41436;SDS011;27178;49.460;10.850;2024-02-14T06:46:32;3.77;;;3.20;;
41436;SDS011;27178;49.460;10.850;2024-02-14T06:49:02;4.53;;;3.57;;
41436;SDS011;27178;49.460;10.850;2024-02-14T06:51:31;4.03;;;3.30;;
41436;SDS011;27178;49.460;10.850;2024-02-14T06:54:01;4.27;;;3.50;;
41436;SDS011;27178;49.460;10.850;2024-02-14T06:56:30;3.83;;;3.13;;
41436;SDS011;27178;49.460;10.850;2024-02-14T06:58:58;4.65;;;3.63;;
41436;SDS011;27178;49.460;10.850;2024-02-14T07:01:29;3.63;;;3.23;;
41436;SDS011;27178;49.460;10.850;2024-02-14T07:06:26;3.33;;;3.00;;
41436;SDS011;27178;49.460;10.850;2024-02-14T07:08:54;3.80;;;3.50;;
41436;SDS011;27178;49.460;10.850;2024-02-14T07:11:24;3.40;;;3.10;;
41436;SDS011;27178;49.460;10.850;2024-02-14T07:13:52;4.40;;;3.67;;
41436;SDS011;27178;49.460;10.850;2024-02-14T07:16:20;5.03;;;3.47;;
41436;SDS011;27178;49.460;10.850;2024-02-14T07:18:49;4.70;;;4.00;;
41436;SDS011;27178;49.460;10.850;2024-02-14T07:21:18;5.17;;;4.13;;
41436;SDS011;27178;49.460;10.850;2024-02-14T07:23:46;4.05;;;3.30;;
41436;SDS011;27178;49.460;10.850;2024-02-14T07:26:15;4.47;;;3.30;;
41436;SDS011;27178;49.460;10.850;2024-02-14T07:28:44;5.73;;;3.43;;
41436;SDS011;27178;49.460;10.850;2024-02-14T07:31:13;3.60;;;3.30;;
41436;SDS011;27178;49.460;10.850;2024-02-14T07:33:41;4.00;;;3.43;;
41436;SDS011;27178;49.460;10.850;2024-02-14T07:36:10;4.43;;;3.90;;
41436;SDS011;27178;49.460;10.850;2024-02-14T07:38:39;7.07;;;3.60;;
41436;SDS011;27178;49.460;10.850;2024-02-14T07:41:09;7.60;;;3.63;;
41436;SDS011;27178;49.460;10.850;2024-02-14T07:43:37;3.80;;;3.37;;
41436;SDS011;27178;49.460;10.850;2024-02-14T07:46:07;3.20;;;3.00;;
41436;SDS011;27178;49.460;10.850;2024-02-14T07:48:36;4.03;;;3.63;;
41436;SDS011;27178;49.460;10.850;2024-02-14T07:51:06;4.33;;;3.73;;
41436;SDS011;27178;49.460;10.850;2024-02-14T07:53:35;4.40;;;3.33;;
41436;SDS011;27178;49.460;10.850;2024-02-14T07:56:03;4.15;;;3.50;;
41436;SDS011;27178;49.460;10.850;2024-02-14T07:58:32;3.67;;;3.38;;
41436;SDS011;27178;49.460;10.850;2024-02-14T08:01:00;3.80;;;3.50;;
41436;SDS011;27178;49.460;10.850;2024-02-14T08:03:32;4.10;;;3.30;;
41436;SDS011;27178;49.460;10.850;2024-02-14T08:06:00;3.63;;;3.33;;
41436;SDS011;27178;49.460;10.850;2024-02-14T08:08:29;4.93;;;3.60;;
41436;SDS011;27178;49.460;10.850;2024-02-14T08:10:57;5.60;;;4.43;;
41436;SDS011;27178;49.460;10.850;2024-02-14T08:13:26;7.55;;;6.53;;
41436;SDS011;27178;49.460;10.850;2024-02-14T08:15:54;5.88;;;5.20;;
41436;SDS011;27178;49.460;10.850;2024-02-14T08:18:24;4.50;;;3.90;;
41436;SDS011;27178;49.460;10.850;2024-02-14T08:20:55;4.87;;;3.43;;
41436;SDS011;27178;49.460;10.850;2024-02-14T08:23:23;3.92;;;3.40;;
41436;SDS011;27178;49.460;10.850;2024-02-14T08:25:52;6.60;;;3.80;;
41436;SDS011;27178;49.460;10.850;2024-02-14T08:28:20;3.65;;;3.35;;
41436;SDS011;27178;49.460;10.850;2024-02-14T08:30:48;4.17;;;3.57;;
41436;SDS011;27178;49.460;10.850;2024-02-14T08:33:17;4.37;;;3.50;;
41436;SDS011;27178;49.460;10.850;2024-02-14T08:35:46;4.60;;;3.80;;
41436;SDS011;27178;49.460;10.850;2024-02-14T08:38:16;4.07;;;3.67;;
41436;SDS011;27178;49.460;10.850;2024-02-14T08:40:44;4.28;;;3.22;;
41436;SDS011;27178;49.460;10.850;2024-02-14T08:43:13;3.55;;;3.22;;
41436;SDS011;27178;49.460;10.850;2024-02-14T08:45:42;4.23;;;3.43;;
41436;SDS011;27178;49.460;10.850;2024-02-14T08:48:10;3.50;;;3.20;;
41436;SDS011;27178;49.460;10.850;2024-02-14T08:50:38;3.92;;;2.97;;
41436;SDS011;27178;49.460;10.850;2024-02-14T08:53:07;4.07;;;3.00;;
41436;SDS011;27178;49.460;10.850;2024-02-14T08:55:37;6.20;;;3.30;;
41436;SDS011;27178;49.460;10.850;2024-02-14T08:58:05;3.42;;;2.97;;
41436;SDS011;27178;49.460;10.850;2024-02-14T09:00:36;4.45;;;3.13;;
41436;SDS011;27178;49.460;10.850;2024-02-14T09:03:05;3.28;;;2.90;;
41436;SDS011;27178;49.460;10.850;2024-02-14T09:05:33;4.32;;;2.65;;
41436;SDS011;27178;49.460;10.850;2024-02-14T09:08:04;3.42;;;2.88;;
41436;SDS011;27178;49.460;10.850;2024-02-14T09:10:32;5.10;;;3.00;;
41436;SDS011;27178;49.460;10.850;2024-02-14T09:13:02;3.40;;;3.00;;
41436;SDS011;27178;49.460;10.850;2024-02-14T09:15:30;6.47;;;3.03;;
41436;SDS011;27178;49.460;10.850;2024-02-14T09:17:59;3.88;;;2.92;;
41436;SDS011;27178;49.460;10.850;2024-02-14T09:20:30;4.20;;;3.47;;
41436;SDS011;27178;49.460;10.850;2024-02-14T09:22:58;3.70;;;3.38;;
41436;SDS011;27178;49.460;10.850;2024-02-14T09:25:26;4.72;;;3.40;;
41436;SDS011;27178;49.460;10.850;2024-02-14T09:27:55;4.40;;;3.20;;
41436;SDS011;27178;49.460;10.850;2024-02-14T09:30:24;4.25;;;3.63;;
41436;SDS011;27178;49.460;10.850;2024-02-14T09:33:04;3.85;;;3.45;;
41436;SDS011;27178;49.460;10.850;2024-02-14T09:35:32;4.32;;;3.42;;
41436;SDS011;27178;49.460;10.850;2024-02-14T09:38:02;4.33;;;3.30;;
41436;SDS011;27178;49.460;10.850;2024-02-14T09:40:30;5.50;;;3.37;;
41436;SDS011;27178;49.460;10.850;2024-02-14T09:42:59;6.30;;;3.27;;
41436;SDS011;27178;49.460;10.850;2024-02-14T09:45:32;3.50;;;2.97;;
41436;SDS011;27178;49.460;10.850;2024-02-14T09:48:01;3.53;;;2.60;;
41436;SDS011;27178;49.460;10.850;2024-02-14T09:50:30;4.32;;;2.50;;
41436;SDS011;27178;49.460;10.850;2024-02-14T09:52:59;4.53;;;2.83;;
41436;SDS011;27178;49.460;10.850;2024-02-14T09:55:28;5.00;;;3.35;;
41436;SDS011;27178;49.460;10.850;2024-02-14T09:57:57;3.83;;;2.43;;
41436;SDS011;27178;49.460;10.850;2024-02-14T10:00:31;2.70;;;2.50;;
41436;SDS011;27178;49.460;10.850;2024-02-14T10:03:00;5.35;;;2.80;;
41436;SDS011;27178;49.460;10.850;2024-02-14T10:05:29;4.90;;;2.80;;
41436;SDS011;27178;49.460;10.850;2024-02-14T10:07:58;4.22;;;2.05;;
41436;SDS011;27178;49.460;10.850;2024-02-14T10:10:27;2.22;;;2.03;;
41436;SDS011;27178;49.460;10.850;2024-02-14T10:12:56;3.97;;;2.40;;
41436;SDS011;27178;49.460;10.850;2024-02-14T10:15:25;4.70;;;2.80;;
41436;SDS011;27178;49.460;10.850;2024-02-14T10:17:54;2.88;;;2.08;;
41436;SDS011;27178;49.460;10.850;2024-02-14T10:20:24;3.83;;;2.35;;
41436;SDS011;27178;49.460;10.850;2024-02-14T10:22:59;2.50;;;2.10;;
41436;SDS011;27178;49.460;10.850;2024-02-14T10:25:29;2.78;;;2.00;;
41436;SDS011;27178;49.460;10.850;2024-02-14T10:28:02;2.72;;;1.85;;
41436;SDS011;27178;49.460;10.850;2024-02-14T10:30:31;3.38;;;1.70;;
41436;SDS011;27178;49.460;10.850;2024-02-14T10:33:01;2.03;;;1.80;;
41436;SDS011;27178;49.460;10.850;2024-02-14T10:35:45;2.35;;;1.80;;
41436;SDS011;27178;49.460;10.850;2024-02-14T10:38:17;3.78;;;1.45;;
41436;SDS011;27178;49.460;10.850;2024-02-14T10:40:47;2.58;;;1.70;;
41436;SDS011;27178;49.460;10.850;2024-02-14T10:43:16;2.53;;;1.67;;
41436;SDS011;27178;49.460;10.850;2024-02-14T10:45:44;1.60;;;1.50;;
41436;SDS011;27178;49.460;10.850;2024-02-14T10:48:14;2.42;;;1.23;;
41436;SDS011;27178;49.460;10.850;2024-02-14T10:50:45;1.40;;;1.30;;
41436;SDS011;27178;49.460;10.850;2024-02-14T10:53:15;2.72;;;1.30;;
41436;SDS011;27178;49.460;10.850;2024-02-14T10:55:45;2.17;;;1.30;;
41436;SDS011;27178;49.460;10.850;2024-02-14T10:58:16;1.33;;;1.23;;
41436;SDS011;27178;49.460;10.850;2024-02-14T11:00:46;4.07;;;1.75;;
41436;SDS011;27178;49.460;10.850;2024-02-14T11:03:17;1.38;;;1.27;;
41436;SDS011;27178;49.460;10.850;2024-02-14T11:05:46;2.05;;;1.23;;
41436;SDS011;27178;49.460;10.850;2024-02-14T11:08:18;2.50;;;1.50;;
41436;SDS011;27178;49.460;10.850;2024-02-14T11:10:52;2.85;;;1.38;;
41436;SDS011;27178;49.460;10.850;2024-02-14T11:13:21;1.98;;;1.67;;
41436;SDS011;27178;49.460;10.850;2024-02-14T11:15:53;1.38;;;0.90;;
41436;SDS011;27178;49.460;10.850;2024-02-14T11:18:26;1.33;;;1.23;;
41436;SDS011;27178;49.460;10.850;2024-02-14T11:20:56;2.85;;;1.20;;
41436;SDS011;27178;49.460;10.850;2024-02-14T11:23:29;1.20;;;1.10;;
41436;SDS011;27178;49.460;10.850;2024-02-14T11:25:59;1.05;;;0.93;;
41436;SDS011;27178;49.460;10.850;2024-02-14T11:28:29;2.58;;;1.40;;
41436;SDS011;27178;49.460;10.850;2024-02-14T11:30:58;1.63;;;1.25;;
41436;SDS011;27178;49.460;10.850;2024-02-14T11:33:32;1.33;;;1.00;;
41436;SDS011;27178;49.460;10.850;2024-02-14T11:36:07;1.20;;;1.02;;
41436;SDS011;27178;49.460;10.850;2024-02-14T11:38:37;2.53;;;1.10;;
41436;SDS011;27178;49.460;10.850;2024-02-14T11:41:08;1.58;;;1.10;;
41436;SDS011;27178;49.460;10.850;2024-02-14T11:43:38;1.30;;;1.20;;
41436;SDS011;27178;49.460;10.850;2024-02-14T11:46:07;0.90;;;0.85;;
41436;SDS011;27178;49.460;10.850;2024-02-14T11:48:37;1.33;;;0.93;;
41436;SDS011;27178;49.460;10.850;2024-02-14T11:51:07;1.20;;;0.98;;
41436;SDS011;27178;49.460;10.850;2024-02-14T11:53:37;1.95;;;1.00;;
41436;SDS011;27178;49.460;10.850;2024-02-14T11:56:07;1.33;;;1.20;;
41436;SDS011;27178;49.460;10.850;2024-02-14T11:58:35;1.10;;;0.93;;
41436;SDS011;27178;49.460;10.850;2024-02-14T12:01:04;1.48;;;1.20;;
41436;SDS011;27178;49.460;10.850;2024-02-14T12:03:33;1.50;;;1.20;;
41436;SDS011;27178;49.460;10.850;2024-02-14T12:06:04;1.42;;;1.25;;
41436;SDS011;27178;49.460;10.850;2024-02-14T12:08:33;1.27;;;1.02;;
41436;SDS011;27178;49.460;10.850;2024-02-14T12:11:02;1.48;;;1.17;;
41436;SDS011;27178;49.460;10.850;2024-02-14T12:13:36;1.10;;;0.98;;
41436;SDS011;27178;49.460;10.850;2024-02-14T12:16:10;1.15;;;1.00;;
41436;SDS011;27178;49.460;10.850;2024-02-14T12:18:38;1.92;;;1.55;;
41436;SDS011;27178;49.460;10.850;2024-02-14T12:21:09;1.77;;;1.20;;
41436;SDS011;27178;49.460;10.850;2024-02-14T12:23:38;1.50;;;1.40;;
41436;SDS011;27178;49.460;10.850;2024-02-14T12:26:07;1.40;;;1.00;;
41436;SDS011;27178;49.460;10.850;2024-02-14T12:28:41;2.67;;;0.90;;
41436;SDS011;27178;49.460;10.850;2024-02-14T12:31:21;2.30;;;1.00;;
41436;SDS011;27178;49.460;10.850;2024-02-14T12:33:50;1.77;;;1.30;;
41436;SDS011;27178;49.460;10.850;2024-02-14T12:36:23;1.20;;;1.00;;
41436;SDS011;27178;49.460;10.850;2024-02-14T12:38:51;0.98;;;0.85;;
41436;SDS011;27178;49.460;10.850;2024-02-14T12:41:19;1.30;;;1.02;;
41436;SDS011;27178;49.460;10.850;2024-02-14T12:43:48;0.80;;;0.80;;
41436;SDS011;27178;49.460;10.850;2024-02-14T12:46:17;1.40;;;1.00;;
41436;SDS011;27178;49.460;10.850;2024-02-14T12:48:45;1.30;;;0.98;;
41436;SDS011;27178;49.460;10.850;2024-02-14T12:51:14;2.20;;;1.20;;
41436;SDS011;27178;49.460;10.850;2024-02-14T12:53:45;1.10;;;1.00;;
41436;SDS011;27178;49.460;10.850;2024-02-14T12:56:13;1.05;;;1.00;;
41436;SDS011;27178;49.460;10.850;2024-02-14T12:58:41;1.40;;;1.23;;
41436;SDS011;27178;49.460;10.850;2024-02-14T13:01:10;1.52;;;1.02;;
41436;SDS011;27178;49.460;10.850;2024-02-14T13:03:40;2.83;;;1.13;;
41436;SDS011;27178;49.460;10.850;2024-02-14T13:06:08;1.20;;;1.10;;
41436;SDS011;27178;49.460;10.850;2024-02-14T13:08:37;1.05;;;0.88;;
41436;SDS011;27178;49.460;10.850;2024-02-14T13:11:07;0.82;;;0.80;;
41436;SDS011;27178;49.460;10.850;2024-02-14T13:13:36;1.35;;;1.10;;
41436;SDS011;27178;49.460;10.850;2024-02-14T13:16:05;1.40;;;1.27;;
41436;SDS011;27178;49.460;10.850;2024-02-14T13:18:33;0.88;;;0.73;;
41436;SDS011;27178;49.460;10.850;2024-02-14T13:21:03;1.67;;;0.85;;
41436;SDS011;27178;49.460;10.850;2024-02-14T13:23:33;1.73;;;1.15;;
41436;SDS011;27178;49.460;10.850;2024-02-14T13:26:01;1.20;;;1.10;;
41436;SDS011;27178;49.460;10.850;2024-02-14T13:28:32;3.08;;;0.90;;
41436;SDS011;27178;49.460;10.850;2024-02-14T13:31:00;1.05;;;1.00;;
41436;SDS011;27178;49.460;10.850;2024-02-14T13:33:28;0.90;;;0.90;;
41436;SDS011;27178;49.460;10.850;2024-02-14T13:35:57;2.50;;;1.02;;
41436;SDS011;27178;49.460;10.850;2024-02-14T13:38:25;2.08;;;1.10;;
41436;SDS011;27178;49.460;10.850;2024-02-14T13:40:54;2.10;;;1.27;;
41436;SDS011;27178;49.460;10.850;2024-02-14T13:43:22;1.70;;;1.15;;
41436;SDS011;27178;49.460;10.850;2024-02-14T13:45:53;1.40;;;1.30;;
41436;SDS011;27178;49.460;10.850;2024-02-14T13:48:21;1.48;;;1.05;;
41436;SDS011;27178;49.460;10.850;2024-02-14T13:50:49;1.67;;;1.45;;
41436;SDS011;27178;49.460;10.850;2024-02-14T13:53:18;1.50;;;1.20;;
41436;SDS011;27178;49.460;10.850;2024-02-14T13:55:49;0.80;;;0.80;;
41436;SDS011;27178;49.460;10.850;2024-02-14T13:58:18;1.50;;;1.40;;
41436;SDS011;27178;49.460;10.850;2024-02-14T14:00:46;1.75;;;1.50;;
41436;SDS011;27178;49.460;10.850;2024-02-14T14:03:16;2.55;;;1.90;;
41436;SDS011;27178;49.460;10.850;2024-02-14T14:05:45;2.35;;;1.80;;
41436;SDS011;27178;49.460;10.850;2024-02-14T14:08:13;1.85;;;1.67;;
41436;SDS011;27178;49.460;10.850;2024-02-14T14:10:41;1.77;;;1.63;;
41436;SDS011;27178;49.460;10.850;2024-02-14T14:13:11;3.22;;;1.95;;
41436;SDS011;27178;49.460;10.850;2024-02-14T14:15:40;2.35;;;1.63;;
41436;SDS011;27178;49.460;10.850;2024-02-14T14:18:09;3.35;;;1.55;;
41436;SDS011;27178;49.460;10.850;2024-02-14T14:20:39;3.08;;;1.65;;
41436;SDS011;27178;49.460;10.850;2024-02-14T14:23:07;3.25;;;1.52;;
41436;SDS011;27178;49.460;10.850;2024-02-14T14:25:36;6.30;;;2.25;;
41436;SDS011;27178;49.460;10.850;2024-02-14T14:28:05;2.70;;;1.88;;
41436;SDS011;27178;49.460;10.850;2024-02-14T14:30:34;3.22;;;2.05;;
41436;SDS011;27178;49.460;10.850;2024-02-14T14:33:03;2.67;;;2.28;;
41436;SDS011;27178;49.460;10.850;2024-02-14T14:35:32;2.97;;;2.17;;
41436;SDS011;27178;49.460;10.850;2024-02-14T14:38:03;2.60;;;1.98;;
41436;SDS011;27178;49.460;10.850;2024-02-14T14:40:33;2.67;;;1.90;;
41436;SDS011;27178;49.460;10.850;2024-02-14T14:43:02;3.35;;;1.67;;
41436;SDS011;27178;49.460;10.850;2024-02-14T14:45:31;1.80;;;1.50;;
41436;SDS011;27178;49.460;10.850;2024-02-14T14:47:59;3.38;;;1.92;;